Accueil
METAR-TAF:

METAR-TAF

Aéroports :

Woensdrecht, Pays-Bas

latitude: 51-27N, longitude: 004-20E, altitude: 20 m

Observation

Le bulletin a été fait il y a 17 minutes, à 18:55 UTC
Vent 12 kt de nord/nord-est, variant entre nord/nord-ouest et est
Température 3°C
Humidité 44%
Pression 1034 hPa
Visibilité 10 km ou plus

METAR: EHWO 291855Z AUTO 03012KT 340V100 9999 NCD 03/M08 Q1034 BLU

Heure: 21:12 (19:12 UTC)


TAF: absent

Observations et prévisions météorologiques de plus de 4000 aéroports (messages METAR et TAF).

Les stations disponibles sont représentées par des disques jaunes et rouges sur la carte.

Passer la souris dessus pour voir le nom de la station.

Cliquer dessus pour voir les observations et prévisions météorologiques.

Pour changer de carte: cliquez sur les boutons verts avec une croix noire pour zoomer, sur le bouton vert avec un tiret pour effectuer un zoom arrière, ou sur les flèches vertes pour les cartes adjacentes.


METAR-TAF: